Portada
Imágenes satélite Pronóstico 15 díasClimaPredicción Marítima Ciclones Rayo AeropuertosFAQ Noticias Acerca
El tiempo : Europa África América del Norte América del Sur Asia Australia-Oceanía Otros
Idiomas Contacto

Santa Cruz de la Sierra, Bolivia

El Trompillo

latitud: 17-48S, longitud: 063-11W, altitud: 418 m


METAR: SLET 272300Z 11003KT 9999 NSC 23/10 Q1013
short-TAF: expira (5633 horas)
long-TAF: SLET 271606Z 2718/2818 17010G20KT 9999 FEW023 TX27/2720Z TN17/ 2811Z BECMG 2723/2801 18006KT NSC BECMG 2814/2816 17010KT

Hora: 19:15 (23:15 UTC)

Observación

El informe se hizo hace 15 minutos, a las 23:00 UTC  
Viento 03 kt del este-sureste
Temperatura 23°C
Humedad 44%
Presión 1013 hPa
Visibilidad 10 km o más

Cambiar las unidades

Pronóstico

El informe se hizo hace 6 horas y 36 minutos, a las 16:39 UTC  
Pronóstico válido del 27 a las 18 UTC al 28 a las 18 UTC
Viento 10 kt del sur con ráfagas de 20 kt
Visibilidad 10 km o más
Escasas nubes a una altura de 2300 ft
Evolucionando progresivamente
del 27 a las 23 UTC al 28 a las 01 UTC
Viento 06 kt del sur
Evolucionando progresivamente
del 28 a las 14 UTC al 28 a las 16 UTC
Viento 10 kt del sur
La información que se ofrece en estas páginas está sujeta a una cláusula de exención de responsabilidad
El tiempo : Europa África América del Norte América del Sur Asia Australia-Oceanía Otros
Imágenes satélite Pronóstico 15 díasClimaPredicción Marítima Ciclones Rayo AeropuertosFAQ Idiomas Contacto Noticias Acerca